Fure West — OZ2100 — position and weather

sailwx.info

Track history (hours):
 
Tides and Currents Weather Stations Pressure Air Temp Water Temp Dewpoint Dewpoint Depression Visibility Wind Speed Wind Dir Waves Ship Positions

Fure West

Last reported at 2017-Jan-24 18:32 UTC. Time now 2017-Jan-24 19:23 UTC.
Position N 59°20' E 010°31'.

Length 144 m; draft 8.3 m.

MMSI: 231775000.

Date/timePositionNaut miles runAvg speedWind from/ knotsBaromVisibWave heightAir tempDewpointWater temp
2017-Jan-24 18:32N 59°20' E 010°31'0 0.0
2017-Jan-24 17:32N 59°20' E 010°31'0 0.0
2017-Jan-24 16:32N 59°20' E 010°31'0 0.0
2017-Jan-24 15:32N 59°20' E 010°31'0 0.1
2017-Jan-24 14:32N 59°20' E 010°31'0 0.0
2017-Jan-24 13:32N 59°20' E 010°31'0 0.0
2017-Jan-24 12:32N 59°20' E 010°31'0 0.0
2017-Jan-24 11:32N 59°20' E 010°31'0 0.0
2017-Jan-24 10:32N 59°20' E 010°31'4 3.7
2017-Jan-24 09:33N 59°17' E 010°34'1211.6
2017-Jan-24 08:33N 59°05' E 010°35'8 7.5
2017-Jan-24 07:33N 58°58' E 010°31'7 7.4
2017-Jan-24 06:33N 58°51' E 010°24'6 5.7
2017-Jan-24 05:33N 58°46' E 010°19'1010.2
2017-Jan-24 04:33N 58°37' E 010°10'1010.5
2017-Jan-24 03:33N 58°28' E 010°00'1111.0
2017-Jan-24 02:33N 58°18' E 009°50'16411.7
2017-Jan-23 12:33N 55°55' E 007°27'1212.1
2017-Jan-23 11:33N 55°43' E 007°21'1212.5
2017-Jan-23 10:33N 55°31' E 007°21'1312.6
2017-Jan-23 09:33N 55°18' E 007°23'1312.6
2017-Jan-23 08:33N 55°05' E 007°25'1312.5
2017-Jan-23 07:33N 54°53' E 007°27'4611.2
2017-Jan-23 03:30N 54°09' E 007°44'1111.8
2017-Jan-23 02:33N 54°03' E 008°00'1212.0
2017-Jan-23 01:33N 53°60' E 008°20'1514.8
2017-Jan-23 00:34N 53°53' E 008°42'1514.7
2017-Jan-22 23:33N 53°53' E 009°07'1111.4
2017-Jan-22 22:34N 53°47' E 009°24'1312.6
2017-Jan-22 21:34N 53°36' E 009°35'1111.3
2017-Jan-22 20:33N 53°33' E 009°53'3 3.0
2017-Jan-22 19:33N 53°31' E 009°57'0 0.0
2017-Jan-22 15:16N 53°31' E 009°57'0 0.0
2017-Jan-22 09:33N 53°31' E 009°57'0 0.0
2017-Jan-22 08:33N 53°31' E 009°57'0 0.0
2017-Jan-22 07:33N 53°31' E 009°57'3 3.4
2017-Jan-22 06:33N 53°32' E 009°53'1211.5
2017-Jan-22 05:33N 53°36' E 009°34'1313.4
2017-Jan-22 04:34N 53°48' E 009°23'1111.1
2017-Jan-22 03:33N 53°53' E 009°06'1211.8
2017-Jan-22 02:34N 53°51' E 008°46'1111.3
2017-Jan-22 01:33N 53°58' E 008°31'1212.4
2017-Jan-22 00:33N 53°60' E 008°10'7910.8
2017-Jan-21 17:17N 54°06' E 005°57'911.7
2017-Jan-21 16:33N 54°05' E 005°42'1311.8
2017-Jan-21 15:25N 54°03' E 005°19'1111.7
2017-Jan-21 14:30N 54°02' E 005°01'7211.8
2017-Jan-21 08:23N 53°13' E 003°33'1312.4
2017-Jan-21 07:22N 53°01' E 003°24'3512.3
2017-Jan-21 04:29N 52°27' E 003°10'2311.8
2017-Jan-21 02:32N 52°08' E 003°33'1111.8
2017-Jan-21 01:33N 52°04' E 003°50'10 9.7
2017-Jan-21 00:33N 51°59' E 004°04'9 9.1
2017-Jan-20 23:33N 51°54' E 004°16'2 1.7
2017-Jan-20 22:30N 51°53' E 004°18'0 0.0
2017-Jan-20 21:34N 51°53' E 004°18'0 0.0
2017-Jan-20 20:33N 51°53' E 004°18'0 0.0
2017-Jan-20 19:33N 51°53' E 004°18'0 0.0
2017-Jan-20 18:33N 51°53' E 004°18'0 0.0
2017-Jan-20 17:33N 51°53' E 004°18'0 0.0
2017-Jan-20 16:33N 51°53' E 004°18'0 0.0
2017-Jan-20 15:34N 51°53' E 004°18'0 0.0
2017-Jan-20 14:34N 51°53' E 004°18'0 0.0
2017-Jan-20 13:33N 51°53' E 004°18'0 0.0
2017-Jan-20 12:33N 51°53' E 004°18'0 0.0
2017-Jan-20 11:33N 51°53' E 004°18'0 0.0
2017-Jan-20 10:33N 51°53' E 004°18'0 0.0
2017-Jan-20 09:33N 51°53' E 004°18'0 0.0
2017-Jan-20 08:33N 51°53' E 004°18'0 0.0
2017-Jan-20 07:33N 51°53' E 004°18'0 0.0
2017-Jan-20 06:33N 51°53' E 004°18'0 0.0
2017-Jan-20 05:33N 51°53' E 004°18'0 0.0
2017-Jan-20 04:33N 51°53' E 004°18'0 0.0
2017-Jan-20 03:33N 51°53' E 004°18'0 0.0
2017-Jan-20 02:33N 51°53' E 004°18'0 0.0
2017-Jan-20 01:33N 51°53' E 004°18'0 0.0
2017-Jan-20 00:33N 51°53' E 004°18'0 0.0
2017-Jan-19 23:33N 51°53' E 004°18'0 0.0
2017-Jan-19 22:33N 51°53' E 004°18'0 0.0
2017-Jan-19 21:33N 51°53' E 004°18'0 0.0
2017-Jan-19 20:33N 51°53' E 004°18'0 0.0
2017-Jan-19 19:33N 51°53' E 004°18'0 0.0
2017-Jan-19 18:34N 51°53' E 004°18'0 0.0
2017-Jan-19 17:34N 51°53' E 004°18'0 0.0
2017-Jan-19 16:33N 51°53' E 004°18'0 0.0
2017-Jan-19 15:33N 51°53' E 004°18'0 0.0
2017-Jan-19 14:33N 51°53' E 004°18'0 0.0
2017-Jan-19 13:33N 51°53' E 004°18'0 0.0
2017-Jan-19 12:34N 51°53' E 004°18'0 0.0
2017-Jan-19 11:34N 51°53' E 004°18'0 0.0
2017-Jan-19 10:34N 51°53' E 004°18'0 0.0
2017-Jan-19 09:33N 51°53' E 004°18'0 0.0
2017-Jan-19 08:33N 51°53' E 004°18'0 0.0
2017-Jan-19 07:34N 51°53' E 004°18'0 0.0
2017-Jan-19 06:33N 51°53' E 004°18'0 0.0
2017-Jan-19 05:33N 51°53' E 004°18'0 0.0
2017-Jan-19 04:33N 51°53' E 004°18'0 0.0
2017-Jan-19 03:33N 51°53' E 004°18'0 0.0
2017-Jan-19 02:33N 51°53' E 004°18'0 0.0
2017-Jan-19 01:33N 51°53' E 004°18'0 0.0
2017-Jan-19 00:34N 51°53' E 004°18'0 0.0
2017-Jan-18 23:34N 51°53' E 004°18'0 0.0
2017-Jan-18 22:33N 51°53' E 004°18'0 0.0
2017-Jan-18 21:33N 51°53' E 004°18'0 0.0
2017-Jan-18 20:33N 51°53' E 004°18'0 0.0
2017-Jan-18 19:33N 51°53' E 004°18'0 0.0
2017-Jan-18 18:34N 51°53' E 004°18'0 0.0
2017-Jan-18 17:33N 51°53' E 004°18'0 0.0
2017-Jan-18 16:33N 51°53' E 004°18'0 0.0
2017-Jan-18 15:34N 51°53' E 004°18'0 0.0
2017-Jan-18 14:33N 51°53' E 004°18'0 0.1
2017-Jan-18 13:33N 51°53' E 004°18'4 3.9
2017-Jan-18 12:33N 51°51' E 004°23'9 9.1
2017-Jan-18 11:34N 51°48' E 004°37'6 0.3
2017-Jan-17 11:34N 51°41' E 004°34'5 4.8
2017-Jan-17 10:33N 51°46' E 004°38'6 5.8
2017-Jan-17 09:33N 51°50' E 004°31'8 7.7
2017-Jan-17 08:33N 51°53' E 004°19'6 5.9
2017-Jan-17 07:33N 51°56' E 004°11'8 7.6
2017-Jan-17 06:33N 51°60' E 004°00'1111.2
2017-Jan-17 05:33N 51°59' E 003°42'8 7.9
2017-Jan-17 04:33N 51°56' E 003°30'8 8.4
2017-Jan-17 03:33N 51°54' E 003°17'9 8.1
2017-Jan-17 02:29N 51°51' E 003°04'24 7.8
2017-Jan-16 23:23N 51°39' E 002°30'6 7.8
2017-Jan-16 22:33N 51°35' E 002°23'6 6.2
2017-Jan-16 21:33N 51°30' E 002°16'6 6.0
2017-Jan-16 20:33N 51°25' E 002°12'5 5.2
2017-Jan-16 19:34N 51°21' E 002°17'5 4.9
2017-Jan-16 18:34N 51°22' E 002°25'3 3.4
2017-Jan-16 17:34N 51°23' E 002°30'5 5.2
2017-Jan-16 16:34N 51°23' E 002°38'9 8.9
2017-Jan-16 15:34N 51°23' E 002°52'1211.9
2017-Jan-16 14:33N 51°24' E 003°11'1111.4
2017-Jan-16 13:34N 51°25' E 003°30'1110.7
2017-Jan-16 12:33N 51°22' E 003°46'1 0.6
2017-Jan-16 11:27N 51°21' E 003°46'0 0.0
2017-Jan-16 10:33N 51°21' E 003°46'0 0.0
2017-Jan-15 16:07N 51°21' E 003°46'0 0.0
2017-Jan-15 15:31N 51°21' E 003°46'0 0.0
2017-Jan-15 14:31N 51°21' E 003°46'1 1.0
2017-Jan-15 13:33N 51°22' E 003°45'9 8.9
2017-Jan-15 12:33N 51°25' E 003°32'1313.2
2017-Jan-15 11:33N 51°24' E 003°11'7 7.4
2017-Jan-15 10:33N 51°30' E 003°04'1413.5
2017-Jan-15 09:32N 51°43' E 003°11'  
Track history (hours):
 
Tides and Currents Weather Stations Pressure Air Temp Water Temp Dewpoint Dewpoint Depression Visibility Wind Speed Wind Dir Waves Ship Positions

Fure West

Last reported at 2017-Jan-24 18:32 UTC. Time now 2017-Jan-24 19:23 UTC.
Position N 59°20' E 010°31'.

Length 144 m; draft 8.3 m.

MMSI: 231775000.

Date/timePositionNaut miles runAvg speedWind from/ knotsBaromVisibWave heightAir tempDewpointWater temp
2017-Jan-24 18:32N 59°20' E 010°31'0 0.0
2017-Jan-24 17:32N 59°20' E 010°31'0 0.0
2017-Jan-24 16:32N 59°20' E 010°31'0 0.0
2017-Jan-24 15:32N 59°20' E 010°31'0 0.1
2017-Jan-24 14:32N 59°20' E 010°31'0 0.0
2017-Jan-24 13:32N 59°20' E 010°31'0 0.0
2017-Jan-24 12:32N 59°20' E 010°31'0 0.0
2017-Jan-24 11:32N 59°20' E 010°31'0 0.0
2017-Jan-24 10:32N 59°20' E 010°31'4 3.7
2017-Jan-24 09:33N 59°17' E 010°34'1211.6
2017-Jan-24 08:33N 59°05' E 010°35'8 7.5
2017-Jan-24 07:33N 58°58' E 010°31'7 7.4
2017-Jan-24 06:33N 58°51' E 010°24'6 5.7
2017-Jan-24 05:33N 58°46' E 010°19'1010.2
2017-Jan-24 04:33N 58°37' E 010°10'1010.5
2017-Jan-24 03:33N 58°28' E 010°00'1111.0
2017-Jan-24 02:33N 58°18' E 009°50'16411.7
2017-Jan-23 12:33N 55°55' E 007°27'1212.1
2017-Jan-23 11:33N 55°43' E 007°21'1212.5
2017-Jan-23 10:33N 55°31' E 007°21'1312.6
2017-Jan-23 09:33N 55°18' E 007°23'1312.6
2017-Jan-23 08:33N 55°05' E 007°25'1312.5
2017-Jan-23 07:33N 54°53' E 007°27'4611.2
2017-Jan-23 03:30N 54°09' E 007°44'1111.8
2017-Jan-23 02:33N 54°03' E 008°00'1212.0
2017-Jan-23 01:33N 53°60' E 008°20'1514.8
2017-Jan-23 00:34N 53°53' E 008°42'1514.7
2017-Jan-22 23:33N 53°53' E 009°07'1111.4
2017-Jan-22 22:34N 53°47' E 009°24'1312.6
2017-Jan-22 21:34N 53°36' E 009°35'1111.3
2017-Jan-22 20:33N 53°33' E 009°53'3 3.0
2017-Jan-22 19:33N 53°31' E 009°57'0 0.0
2017-Jan-22 15:16N 53°31' E 009°57'0 0.0
2017-Jan-22 09:33N 53°31' E 009°57'0 0.0
2017-Jan-22 08:33N 53°31' E 009°57'0 0.0
2017-Jan-22 07:33N 53°31' E 009°57'3 3.4
2017-Jan-22 06:33N 53°32' E 009°53'1211.5
2017-Jan-22 05:33N 53°36' E 009°34'1313.4
2017-Jan-22 04:34N 53°48' E 009°23'1111.1
2017-Jan-22 03:33N 53°53' E 009°06'1211.8
2017-Jan-22 02:34N 53°51' E 008°46'1111.3
2017-Jan-22 01:33N 53°58' E 008°31'1212.4
2017-Jan-22 00:33N 53°60' E 008°10'7910.8
2017-Jan-21 17:17N 54°06' E 005°57'911.7
2017-Jan-21 16:33N 54°05' E 005°42'1311.8
2017-Jan-21 15:25N 54°03' E 005°19'1111.7
2017-Jan-21 14:30N 54°02' E 005°01'7211.8
2017-Jan-21 08:23N 53°13' E 003°33'1312.4
2017-Jan-21 07:22N 53°01' E 003°24'3512.3
2017-Jan-21 04:29N 52°27' E 003°10'2311.8
2017-Jan-21 02:32N 52°08' E 003°33'1111.8
2017-Jan-21 01:33N 52°04' E 003°50'10 9.7
2017-Jan-21 00:33N 51°59' E 004°04'9 9.1
2017-Jan-20 23:33N 51°54' E 004°16'2 1.7
2017-Jan-20 22:30N 51°53' E 004°18'0 0.0
2017-Jan-20 21:34N 51°53' E 004°18'0 0.0
2017-Jan-20 20:33N 51°53' E 004°18'0 0.0
2017-Jan-20 19:33N 51°53' E 004°18'0 0.0
2017-Jan-20 18:33N 51°53' E 004°18'0 0.0
2017-Jan-20 17:33N 51°53' E 004°18'0 0.0
2017-Jan-20 16:33N 51°53' E 004°18'0 0.0
2017-Jan-20 15:34N 51°53' E 004°18'0 0.0
2017-Jan-20 14:34N 51°53' E 004°18'0 0.0
2017-Jan-20 13:33N 51°53' E 004°18'0 0.0
2017-Jan-20 12:33N 51°53' E 004°18'0 0.0
2017-Jan-20 11:33N 51°53' E 004°18'0 0.0
2017-Jan-20 10:33N 51°53' E 004°18'0 0.0
2017-Jan-20 09:33N 51°53' E 004°18'0 0.0
2017-Jan-20 08:33N 51°53' E 004°18'0 0.0
2017-Jan-20 07:33N 51°53' E 004°18'0 0.0
2017-Jan-20 06:33N 51°53' E 004°18'0 0.0
2017-Jan-20 05:33N 51°53' E 004°18'0 0.0
2017-Jan-20 04:33N 51°53' E 004°18'0 0.0
2017-Jan-20 03:33N 51°53' E 004°18'0 0.0
2017-Jan-20 02:33N 51°53' E 004°18'0 0.0
2017-Jan-20 01:33N 51°53' E 004°18'0 0.0
2017-Jan-20 00:33N 51°53' E 004°18'0 0.0
2017-Jan-19 23:33N 51°53' E 004°18'0 0.0
2017-Jan-19 22:33N 51°53' E 004°18'0 0.0
2017-Jan-19 21:33N 51°53' E 004°18'0 0.0
2017-Jan-19 20:33N 51°53' E 004°18'0 0.0
2017-Jan-19 19:33N 51°53' E 004°18'0 0.0
2017-Jan-19 18:34N 51°53' E 004°18'0 0.0
2017-Jan-19 17:34N 51°53' E 004°18'0 0.0
2017-Jan-19 16:33N 51°53' E 004°18'0 0.0
2017-Jan-19 15:33N 51°53' E 004°18'0 0.0
2017-Jan-19 14:33N 51°53' E 004°18'0 0.0
2017-Jan-19 13:33N 51°53' E 004°18'0 0.0
2017-Jan-19 12:34N 51°53' E 004°18'0 0.0
2017-Jan-19 11:34N 51°53' E 004°18'0 0.0
2017-Jan-19 10:34N 51°53' E 004°18'0 0.0
2017-Jan-19 09:33N 51°53' E 004°18'0 0.0
2017-Jan-19 08:33N 51°53' E 004°18'0 0.0
2017-Jan-19 07:34N 51°53' E 004°18'0 0.0
2017-Jan-19 06:33N 51°53' E 004°18'0 0.0
2017-Jan-19 05:33N 51°53' E 004°18'0 0.0
2017-Jan-19 04:33N 51°53' E 004°18'0 0.0
2017-Jan-19 03:33N 51°53' E 004°18'0 0.0
2017-Jan-19 02:33N 51°53' E 004°18'0 0.0
2017-Jan-19 01:33N 51°53' E 004°18'0 0.0
2017-Jan-19 00:34N 51°53' E 004°18'0 0.0
2017-Jan-18 23:34N 51°53' E 004°18'0 0.0
2017-Jan-18 22:33N 51°53' E 004°18'0 0.0
2017-Jan-18 21:33N 51°53' E 004°18'0 0.0
2017-Jan-18 20:33N 51°53' E 004°18'0 0.0
2017-Jan-18 19:33N 51°53' E 004°18'0 0.0
2017-Jan-18 18:34N 51°53' E 004°18'0 0.0
2017-Jan-18 17:33N 51°53' E 004°18'0 0.0
2017-Jan-18 16:33N 51°53' E 004°18'0 0.0
2017-Jan-18 15:34N 51°53' E 004°18'0 0.0
2017-Jan-18 14:33N 51°53' E 004°18'0 0.1
2017-Jan-18 13:33N 51°53' E 004°18'4 3.9
2017-Jan-18 12:33N 51°51' E 004°23'9 9.1
2017-Jan-18 11:34N 51°48' E 004°37'6 0.3
2017-Jan-17 11:34N 51°41' E 004°34'5 4.8
2017-Jan-17 10:33N 51°46' E 004°38'6 5.8
2017-Jan-17 09:33N 51°50' E 004°31'8 7.7
2017-Jan-17 08:33N 51°53' E 004°19'6 5.9
2017-Jan-17 07:33N 51°56' E 004°11'8 7.6
2017-Jan-17 06:33N 51°60' E 004°00'1111.2
2017-Jan-17 05:33N 51°59' E 003°42'8 7.9
2017-Jan-17 04:33N 51°56' E 003°30'8 8.4
2017-Jan-17 03:33N 51°54' E 003°17'9 8.1
2017-Jan-17 02:29N 51°51' E 003°04'24 7.8
2017-Jan-16 23:23N 51°39' E 002°30'6 7.8
2017-Jan-16 22:33N 51°35' E 002°23'6 6.2
2017-Jan-16 21:33N 51°30' E 002°16'6 6.0
2017-Jan-16 20:33N 51°25' E 002°12'5 5.2
2017-Jan-16 19:34N 51°21' E 002°17'5 4.9
2017-Jan-16 18:34N 51°22' E 002°25'3 3.4
2017-Jan-16 17:34N 51°23' E 002°30'5 5.2
2017-Jan-16 16:34N 51°23' E 002°38'9 8.9
2017-Jan-16 15:34N 51°23' E 002°52'1211.9
2017-Jan-16 14:33N 51°24' E 003°11'1111.4
2017-Jan-16 13:34N 51°25' E 003°30'1110.7
2017-Jan-16 12:33N 51°22' E 003°46'1 0.6
2017-Jan-16 11:27N 51°21' E 003°46'0 0.0
2017-Jan-16 10:33N 51°21' E 003°46'0 0.0
2017-Jan-15 16:07N 51°21' E 003°46'0 0.0
2017-Jan-15 15:31N 51°21' E 003°46'0 0.0
2017-Jan-15 14:31N 51°21' E 003°46'1 1.0
2017-Jan-15 13:33N 51°22' E 003°45'9 8.9
2017-Jan-15 12:33N 51°25' E 003°32'1313.2
2017-Jan-15 11:33N 51°24' E 003°11'7 7.4
2017-Jan-15 10:33N 51°30' E 003°04'1413.5
2017-Jan-15 09:32N 51°43' E 003°11'  

Dump ship's entire track history